createdAt,value
2022-10-11T00:00:22.136Z,1017.22
2022-10-11T00:01:22.157Z,1017.19
2022-10-11T00:02:22.075Z,1017.20
2022-10-11T00:03:22.086Z,1017.23
2022-10-11T00:04:21.988Z,1017.22
2022-10-11T00:05:22.035Z,1017.28
2022-10-11T00:06:21.930Z,1017.25
2022-10-11T00:07:21.901Z,1017.30
2022-10-11T00:08:21.858Z,1017.30
2022-10-11T00:09:21.908Z,1017.33
2022-10-11T00:10:21.804Z,1017.40
2022-10-11T00:11:21.760Z,1017.37
2022-10-11T00:12:21.727Z,1017.42
2022-10-11T00:13:21.689Z,1017.47
2022-10-11T00:14:21.655Z,1017.45
2022-10-11T00:15:21.692Z,1017.50
2022-10-11T00:16:21.596Z,1017.52
2022-10-11T00:17:21.563Z,1017.58
2022-10-11T00:18:21.548Z,1017.54
2022-10-11T00:19:21.570Z,1017.62
2022-10-11T00:20:21.456Z,1017.60
2022-10-11T00:21:21.432Z,1017.61
2022-10-11T00:22:21.387Z,1017.62
2022-10-11T00:23:21.356Z,1017.66
2022-10-11T00:24:21.324Z,1017.65
2022-10-11T00:25:21.357Z,1017.67
2022-10-11T00:26:21.301Z,1017.70
2022-10-11T00:27:21.247Z,1017.64
2022-10-11T00:28:21.238Z,1017.68
2022-10-11T00:29:21.180Z,1017.71
2022-10-11T00:30:21.192Z,1017.71
2022-10-11T00:31:21.123Z,1017.78
2022-10-11T00:32:21.059Z,1017.77
2022-10-11T00:33:21.030Z,1017.75
2022-10-11T00:34:21.615Z,1017.78
2022-10-11T00:35:21.018Z,1017.78
2022-10-11T00:36:20.928Z,1017.80
2022-10-11T00:37:20.899Z,1017.79
2022-10-11T00:38:20.856Z,1017.80
2022-10-11T00:39:20.901Z,1017.82
2022-10-11T00:40:20.807Z,1017.83
2022-10-11T00:41:20.761Z,1017.84
2022-10-11T00:42:20.726Z,1017.83
2022-10-11T00:43:20.691Z,1017.89
2022-10-11T00:44:20.674Z,1017.89
2022-10-11T00:45:20.679Z,1017.88
2022-10-11T00:46:20.593Z,1017.92
2022-10-11T00:47:20.547Z,1017.90
2022-10-11T00:48:20.519Z,1017.91
2022-10-11T00:49:20.567Z,1017.93
2022-10-11T00:50:20.459Z,1017.96
2022-10-11T00:51:20.433Z,1017.97
2022-10-11T00:52:20.397Z,1017.99
2022-10-11T00:53:20.365Z,1018.00
2022-10-11T00:54:20.317Z,1018.02
2022-10-11T00:55:20.337Z,1018.01
2022-10-11T00:56:20.239Z,1018.03
2022-10-11T00:57:20.209Z,1018.04
2022-10-11T00:58:20.173Z,1018.08
2022-10-11T00:59:20.165Z,1018.07
2022-10-11T01:00:20.176Z,1018.04
2022-10-11T01:01:20.140Z,1018.10
2022-10-11T01:02:20.038Z,1018.06
2022-10-11T01:03:20.003Z,1018.07
2022-10-11T01:04:19.976Z,1018.11
2022-10-11T01:05:32.848Z,1018.05
2022-10-11T01:06:19.912Z,1018.11
2022-10-11T01:07:19.873Z,1018.12
2022-10-11T01:08:19.840Z,1018.10
2022-10-11T01:09:19.821Z,1018.14
2022-10-11T01:10:19.825Z,1018.14
2022-10-11T01:11:19.739Z,1018.14
2022-10-11T01:12:19.711Z,1018.16
2022-10-11T01:13:19.670Z,1018.22
2022-10-11T01:14:19.649Z,1018.21
2022-10-11T01:15:19.656Z,1018.20
2022-10-11T01:16:19.564Z,1018.26
2022-10-11T01:17:19.602Z,1018.22
2022-10-11T01:18:19.500Z,1018.28
2022-10-11T01:19:19.470Z,1018.27
2022-10-11T01:20:19.464Z,1018.27
2022-10-11T01:21:19.445Z,1018.27
2022-10-11T01:22:19.363Z,1018.24
2022-10-11T01:23:19.397Z,1018.24
2022-10-11T01:24:19.304Z,1018.24
2022-10-11T01:25:19.269Z,1018.25
2022-10-11T01:26:19.229Z,1018.26
2022-10-11T01:27:19.189Z,1018.29
2022-10-11T01:28:19.300Z,1018.27
2022-10-11T01:29:19.143Z,1018.26
2022-10-11T01:30:19.103Z,1018.31
2022-10-11T01:31:19.071Z,1018.29
2022-10-11T01:32:19.035Z,1018.33
2022-10-11T01:33:18.998Z,1018.30
2022-10-11T01:34:19.011Z,1018.35
2022-10-11T01:35:18.919Z,1018.33
2022-10-11T01:36:18.887Z,1018.34
2022-10-11T01:37:18.846Z,1018.33
2022-10-11T01:38:18.815Z,1018.32
2022-10-11T01:39:18.792Z,1018.34
2022-10-11T01:40:18.805Z,1018.36
2022-10-11T01:41:18.715Z,1018.36
2022-10-11T01:42:18.704Z,1018.38
2022-10-11T01:43:18.708Z,1018.38
2022-10-11T01:44:18.652Z,1018.39
2022-10-11T01:45:18.587Z,1018.37
2022-10-11T01:46:18.541Z,1018.41
2022-10-11T01:47:18.516Z,1018.39
2022-10-11T01:48:18.529Z,1018.40
2022-10-11T01:49:18.453Z,1018.45
2022-10-11T01:50:18.415Z,1018.39
2022-10-11T01:51:18.365Z,1018.45
2022-10-11T01:52:18.334Z,1018.43
2022-10-11T01:53:18.375Z,1018.44
2022-10-11T01:54:18.287Z,1018.43
2022-10-11T01:55:18.243Z,1018.42
2022-10-11T01:56:18.201Z,1018.43
2022-10-11T01:57:18.166Z,1018.45
2022-10-11T01:58:18.125Z,1018.47
2022-10-11T01:59:18.177Z,1018.50
2022-10-11T02:00:18.073Z,1018.49
2022-10-11T02:01:18.061Z,1018.51
2022-10-11T02:02:17.994Z,1018.54
2022-10-11T02:03:17.957Z,1018.50
2022-10-11T02:04:18.014Z,1018.51
2022-10-11T02:05:17.895Z,1018.56
2022-10-11T02:06:17.873Z,1018.54
2022-10-11T02:07:17.828Z,1018.57
2022-10-11T02:08:17.789Z,1018.58
2022-10-11T02:09:17.861Z,1018.60
2022-10-11T02:10:17.722Z,1018.63
2022-10-11T02:11:17.693Z,1018.61
2022-10-11T02:12:17.654Z,1018.58
2022-10-11T02:13:17.626Z,1018.58
2022-10-11T02:14:17.577Z,1018.58
2022-10-11T02:15:17.622Z,1018.60
2022-10-11T02:16:17.513Z,1018.58
2022-10-11T02:17:17.480Z,1018.62
2022-10-11T02:18:17.448Z,1018.61
2022-10-11T02:19:17.414Z,1018.63
2022-10-11T02:20:17.441Z,1018.65
2022-10-11T02:21:17.332Z,1018.63
2022-10-11T02:22:17.309Z,1018.65
2022-10-11T02:23:17.268Z,1018.70
2022-10-11T02:24:17.230Z,1018.69
2022-10-11T02:25:17.258Z,1018.71
2022-10-11T02:26:17.160Z,1018.69
2022-10-11T02:27:17.132Z,1018.70
2022-10-11T02:28:17.121Z,1018.69
2022-10-11T02:29:17.065Z,1018.70
2022-10-11T02:30:17.322Z,1018.72
2022-10-11T02:31:16.982Z,1018.70
2022-10-11T02:32:17.018Z,1018.71
2022-10-11T02:33:16.915Z,1018.70
2022-10-11T02:34:16.943Z,1018.73
2022-10-11T02:35:16.845Z,1018.72
2022-10-11T02:36:16.811Z,1018.72
2022-10-11T02:37:16.780Z,1018.75
2022-10-11T02:38:16.757Z,1018.74
2022-10-11T02:39:16.710Z,1018.79
2022-10-11T02:40:16.736Z,1018.79
2022-10-11T02:41:16.653Z,1018.78
2022-10-11T02:42:16.614Z,1018.83
2022-10-11T02:43:16.603Z,1018.87
2022-10-11T02:44:16.529Z,1018.83
2022-10-11T02:45:16.577Z,1018.86
2022-10-11T02:46:17.743Z,1018.85
2022-10-11T02:47:16.427Z,1018.86
2022-10-11T02:48:16.393Z,1018.86
2022-10-11T02:49:16.354Z,1018.87
2022-10-11T02:50:16.322Z,1018.87
2022-10-11T02:51:16.346Z,1018.91
2022-10-11T02:52:16.256Z,1018.91
2022-10-11T02:53:16.227Z,1018.94
2022-10-11T02:54:16.186Z,1018.91
2022-10-11T02:55:16.219Z,1018.94
2022-10-11T02:56:16.117Z,1018.96
2022-10-11T02:57:16.077Z,1018.96
2022-10-11T02:58:16.055Z,1018.95
2022-10-11T02:59:16.013Z,1018.98
2022-10-11T03:00:15.975Z,1019.03
2022-10-11T03:01:16.044Z,1019.01
2022-10-11T03:02:15.905Z,1019.01
2022-10-11T03:03:15.891Z,1019.00
2022-10-11T03:04:15.839Z,1019.02
2022-10-11T03:05:15.802Z,1019.02
2022-10-11T03:06:15.765Z,1019.02
2022-10-11T03:07:15.782Z,1019.05
2022-10-11T03:08:15.700Z,1019.07
2022-10-11T03:09:15.662Z,1019.06
2022-10-11T03:10:15.687Z,1019.09
2022-10-11T03:11:15.590Z,1019.11
2022-10-11T03:12:15.632Z,1019.10
2022-10-11T03:13:18.262Z,1019.13
2022-10-11T03:14:15.484Z,1019.14
2022-10-11T03:15:15.455Z,1019.15
2022-10-11T03:16:15.522Z,1019.16
2022-10-11T03:17:35.079Z,1019.21
2022-10-11T03:18:15.407Z,1019.18
2022-10-11T03:19:19.110Z,1019.21
2022-10-11T03:20:15.285Z,1019.25
2022-10-11T03:21:15.244Z,1019.23
2022-10-11T03:22:15.206Z,1019.27
2022-10-11T03:23:15.166Z,1019.28
2022-10-11T03:24:15.182Z,1019.33
2022-10-11T03:25:15.113Z,1019.35
2022-10-11T03:26:15.068Z,1019.35
2022-10-11T03:27:15.027Z,1019.38
2022-10-11T03:28:15.046Z,1019.38
2022-10-11T03:29:15.039Z,1019.43
2022-10-11T03:30:18.011Z,1019.43
2022-10-11T03:31:14.887Z,1019.49
2022-10-11T03:32:14.853Z,1019.46
2022-10-11T03:33:14.828Z,1019.51
2022-10-11T03:34:14.840Z,1019.44
2022-10-11T03:35:14.747Z,1019.46
2022-10-11T03:36:14.718Z,1019.46
2022-10-11T03:37:14.717Z,1019.49
2022-10-11T03:38:14.646Z,1019.48
2022-10-11T03:39:14.662Z,1019.55
2022-10-11T03:40:14.575Z,1019.55
2022-10-11T03:41:14.539Z,1019.51
2022-10-11T03:42:14.511Z,1019.54
2022-10-11T03:43:14.481Z,1019.57
2022-10-11T03:44:14.491Z,1019.58
2022-10-11T03:45:14.402Z,1019.54
2022-10-11T03:46:14.403Z,1019.52
2022-10-11T03:47:14.369Z,1019.52
2022-10-11T03:48:14.295Z,1019.58
2022-10-11T03:49:14.318Z,1019.54
2022-10-11T03:50:14.226Z,1019.55
2022-10-11T03:51:14.242Z,1019.59
2022-10-11T03:52:14.159Z,1019.57
2022-10-11T03:53:14.128Z,1019.59
2022-10-11T03:54:14.161Z,1019.58
2022-10-11T03:55:14.056Z,1019.61
2022-10-11T03:56:14.586Z,1019.61
2022-10-11T03:57:13.992Z,1019.66
2022-10-11T03:58:13.944Z,1019.67
2022-10-11T03:59:13.912Z,1019.65
2022-10-11T04:00:13.932Z,1019.69
2022-10-11T04:01:13.864Z,1019.70
2022-10-11T04:02:13.860Z,1019.70
2022-10-11T04:03:13.780Z,1019.73
2022-10-11T04:04:13.816Z,1019.71
2022-10-11T04:05:13.703Z,1019.75
2022-10-11T04:06:13.670Z,1019.77
2022-10-11T04:07:13.634Z,1019.74
2022-10-11T04:08:13.598Z,1019.78
2022-10-11T04:09:13.567Z,1019.75
2022-10-11T04:10:13.586Z,1019.77
2022-10-11T04:11:13.544Z,1019.78
2022-10-11T04:12:13.458Z,1019.84
2022-10-11T04:13:13.427Z,1019.87
2022-10-11T04:14:13.406Z,1019.85
2022-10-11T04:15:13.365Z,1019.90
2022-10-11T04:16:13.383Z,1019.94
2022-10-11T04:17:13.285Z,1019.90
2022-10-11T04:18:13.254Z,1019.92
2022-10-11T04:19:13.223Z,1019.97
2022-10-11T04:20:13.189Z,1019.96
2022-10-11T04:21:13.148Z,1019.98
2022-10-11T04:22:13.392Z,1019.99
2022-10-11T04:23:13.153Z,1019.99
2022-10-11T04:24:13.048Z,1020.04
2022-10-11T04:25:13.008Z,1020.01
2022-10-11T04:26:12.988Z,1019.99
2022-10-11T04:27:12.939Z,1019.99
2022-10-11T04:28:12.934Z,1020.03
2022-10-11T04:29:12.931Z,1020.03
2022-10-11T04:30:12.836Z,1020.05
2022-10-11T04:31:12.807Z,1020.05
2022-10-11T04:32:12.780Z,1020.03
2022-10-11T04:33:12.727Z,1020.05
2022-10-11T04:34:12.744Z,1020.05
2022-10-11T04:35:12.664Z,1020.05
2022-10-11T04:36:12.695Z,1020.07
2022-10-11T04:37:12.586Z,1020.08
2022-10-11T04:38:12.561Z,1020.09
2022-10-11T04:39:12.518Z,1020.10
2022-10-11T04:40:12.493Z,1020.15
2022-10-11T04:41:12.458Z,1020.16
2022-10-11T04:42:12.468Z,1020.12
2022-10-11T04:43:12.395Z,1020.12
2022-10-11T04:44:12.349Z,1020.14
2022-10-11T04:45:12.389Z,1020.14
2022-10-11T04:46:12.276Z,1020.19
2022-10-11T04:47:12.247Z,1020.19
2022-10-11T04:48:12.206Z,1020.20
2022-10-11T04:49:12.169Z,1020.16
2022-10-11T04:50:12.133Z,1020.19
2022-10-11T04:51:12.151Z,1020.18
2022-10-11T04:52:12.075Z,1020.20
2022-10-11T04:53:12.087Z,1020.21
2022-10-11T04:54:12.007Z,1020.21
2022-10-11T04:55:11.973Z,1020.19
2022-10-11T04:56:11.926Z,1020.21
2022-10-11T04:57:11.952Z,1020.23
2022-10-11T04:58:11.857Z,1020.22
2022-10-11T04:59:11.832Z,1020.25
2022-10-11T05:00:11.788Z,1020.21
2022-10-11T05:01:11.750Z,1020.25
2022-10-11T05:02:11.891Z,1020.28
2022-10-11T05:03:11.680Z,1020.31
2022-10-11T05:04:11.676Z,1020.31
2022-10-11T05:05:11.611Z,1020.33
2022-10-11T05:06:11.986Z,1020.35
2022-10-11T05:07:11.589Z,1020.39
2022-10-11T05:08:11.507Z,1020.37
2022-10-11T05:09:11.481Z,1020.41
2022-10-11T05:10:11.441Z,1020.42
2022-10-11T05:11:11.405Z,1020.42
2022-10-11T05:12:11.421Z,1020.42
2022-10-11T05:13:11.347Z,1020.47
2022-10-11T05:14:11.313Z,1020.50
2022-10-11T05:15:11.267Z,1020.50
2022-10-11T05:16:11.899Z,1020.51
2022-10-11T05:17:11.244Z,1020.49
2022-10-11T05:18:11.159Z,1020.53
2022-10-11T05:19:11.126Z,1020.56
2022-10-11T05:20:11.093Z,1020.53
2022-10-11T05:21:11.056Z,1020.55
2022-10-11T05:22:11.074Z,1020.59
2022-10-11T05:23:10.981Z,1020.59
2022-10-11T05:24:10.951Z,1020.57
2022-10-11T05:25:10.917Z,1020.62
2022-10-11T05:26:10.911Z,1020.58
2022-10-11T05:27:10.911Z,1020.61
2022-10-11T05:28:10.839Z,1020.63
2022-10-11T05:29:10.785Z,1020.67
2022-10-11T05:30:10.752Z,1020.64
2022-10-11T05:31:10.710Z,1020.68
2022-10-11T05:32:10.669Z,1020.68
2022-10-11T05:33:10.704Z,1020.69
2022-10-11T05:34:10.614Z,1020.68
2022-10-11T05:35:10.571Z,1020.72
2022-10-11T05:36:10.545Z,1020.74
2022-10-11T05:37:10.498Z,1020.78
2022-10-11T05:38:10.551Z,1020.77
2022-10-11T05:39:10.426Z,1020.79
2022-10-11T05:40:10.400Z,1020.81
2022-10-11T05:41:10.358Z,1020.84
2022-10-11T05:42:10.325Z,1020.84
2022-10-11T05:43:10.287Z,1020.90
2022-10-11T05:44:10.313Z,1020.82
2022-10-11T05:45:10.222Z,1020.87
2022-10-11T05:46:10.189Z,1020.86
2022-10-11T05:47:10.155Z,1020.87
2022-10-11T05:48:10.114Z,1020.87
2022-10-11T05:49:10.137Z,1020.91
2022-10-11T05:50:10.059Z,1020.94
2022-10-11T05:51:10.016Z,1020.90
2022-10-11T05:52:09.990Z,1020.95
2022-10-11T05:53:09.957Z,1020.93
2022-10-11T05:54:09.905Z,1020.93
2022-10-11T05:55:09.916Z,1020.98
2022-10-11T05:56:09.844Z,1020.99
2022-10-11T05:57:09.807Z,1021.01
2022-10-11T05:58:09.782Z,1021.03
2022-10-11T05:59:09.756Z,1021.05
2022-10-11T06:00:09.767Z,1021.04
2022-10-11T06:01:10.360Z,1021.07
2022-10-11T06:02:09.640Z,1021.09
2022-10-11T06:03:09.599Z,1021.08
2022-10-11T06:04:09.557Z,1021.12
2022-10-11T06:05:09.571Z,1021.13
2022-10-11T06:06:10.016Z,1021.12
2022-10-11T06:07:09.456Z,1021.12
2022-10-11T06:08:09.430Z,1021.12
2022-10-11T06:09:09.395Z,1021.11
2022-10-11T06:10:09.407Z,1021.12
2022-10-11T06:11:12.058Z,1021.13
2022-10-11T06:12:09.283Z,1021.13
2022-10-11T06:13:09.243Z,1021.14
2022-10-11T06:14:09.270Z,1021.13
2022-10-11T06:15:09.177Z,1021.17
2022-10-11T06:16:09.151Z,1021.18
2022-10-11T06:17:09.113Z,1021.18
2022-10-11T06:18:09.077Z,1021.21
2022-10-11T06:19:09.041Z,1021.20
2022-10-11T06:20:09.066Z,1021.21
2022-10-11T06:21:08.965Z,1021.25
2022-10-11T06:22:08.946Z,1021.25
2022-10-11T06:23:08.906Z,1021.23
2022-10-11T06:24:08.869Z,1021.26
2022-10-11T06:25:08.829Z,1021.29
2022-10-11T06:26:09.800Z,1021.34
2022-10-11T06:27:08.764Z,1021.35
2022-10-11T06:28:08.838Z,1021.38
2022-10-11T06:29:08.702Z,1021.35
2022-10-11T06:30:08.658Z,1021.38
2022-10-11T06:31:08.626Z,1021.38
2022-10-11T06:32:08.642Z,1021.41
2022-10-11T06:33:08.554Z,1021.43
2022-10-11T06:34:08.523Z,1021.43
2022-10-11T06:35:08.491Z,1021.47
2022-10-11T06:36:08.704Z,1021.49
2022-10-11T06:37:08.464Z,1021.48
2022-10-11T06:38:08.389Z,1021.54
2022-10-11T06:39:08.345Z,1021.52
2022-10-11T06:40:08.312Z,1021.56
2022-10-11T06:41:08.281Z,1021.53
2022-10-11T06:42:08.288Z,1021.57
2022-10-11T06:43:08.213Z,1021.58
2022-10-11T06:44:13.272Z,1021.59
2022-10-11T06:45:08.141Z,1021.62
2022-10-11T06:46:08.435Z,1021.64
2022-10-11T06:47:08.138Z,1021.63
2022-10-11T06:48:08.043Z,1021.65
2022-10-11T06:49:08.005Z,1021.63
2022-10-11T06:50:07.982Z,1021.69
2022-10-11T06:51:07.939Z,1021.70
2022-10-11T06:52:07.900Z,1021.68
2022-10-11T06:53:07.944Z,1021.67
2022-10-11T06:54:07.836Z,1021.69
2022-10-11T06:55:07.794Z,1021.76
2022-10-11T06:56:08.481Z,1021.77
2022-10-11T06:57:07.756Z,1021.74
2022-10-11T06:58:07.696Z,1021.80
2022-10-11T06:59:07.710Z,1021.79
2022-10-11T07:00:11.764Z,1021.78
2022-10-11T07:01:07.638Z,1021.80
2022-10-11T07:02:07.556Z,1021.85
2022-10-11T07:03:07.522Z,1021.81
2022-10-11T07:04:07.547Z,1021.82
2022-10-11T07:05:07.453Z,1021.85
2022-10-11T07:06:07.848Z,1021.88
2022-10-11T07:07:07.384Z,1021.90
2022-10-11T07:08:07.416Z,1021.84
2022-10-11T07:09:07.352Z,1021.86
2022-10-11T07:10:07.327Z,1021.89
2022-10-11T07:11:07.263Z,1021.85
2022-10-11T07:12:07.215Z,1021.86
2022-10-11T07:13:07.242Z,1021.88
2022-10-11T07:14:07.146Z,1021.92
2022-10-11T07:15:07.115Z,1021.91
2022-10-11T07:16:07.535Z,1021.95
2022-10-11T07:17:07.044Z,1021.97
2022-10-11T07:18:07.016Z,1021.97
2022-10-11T07:19:07.017Z,1021.98
2022-10-11T07:20:06.936Z,1021.96
2022-10-11T07:21:06.959Z,1021.96
2022-10-11T07:22:06.874Z,1022.00
2022-10-11T07:23:06.839Z,1021.99
2022-10-11T07:24:06.803Z,1021.99
2022-10-11T07:25:06.770Z,1022.05
2022-10-11T07:26:06.970Z,1022.06
2022-10-11T07:27:06.750Z,1022.06
2022-10-11T07:28:06.673Z,1022.04
2022-10-11T07:29:06.689Z,1022.04
2022-10-11T07:30:06.604Z,1022.07
2022-10-11T07:31:06.580Z,1022.10
2022-10-11T07:32:06.534Z,1022.15
2022-10-11T07:33:06.590Z,1022.13
2022-10-11T07:34:06.481Z,1022.15
2022-10-11T07:35:06.427Z,1022.12
2022-10-11T07:36:06.872Z,1022.16
2022-10-11T07:37:06.373Z,1022.16
2022-10-11T07:38:06.331Z,1022.18
2022-10-11T07:39:06.343Z,1022.15
2022-10-11T07:40:06.257Z,1022.20
2022-10-11T07:41:06.233Z,1022.18
2022-10-11T07:42:06.191Z,1022.20
2022-10-11T07:43:06.178Z,1022.24
2022-10-11T07:44:06.212Z,1022.22
2022-10-11T07:45:06.094Z,1022.27
2022-10-11T07:46:06.383Z,1022.26
2022-10-11T07:47:10.916Z,1022.27
2022-10-11T07:48:05.989Z,1022.27
2022-10-11T07:49:05.955Z,1022.30
2022-10-11T07:50:05.998Z,1022.28
2022-10-11T07:51:05.897Z,1022.26
2022-10-11T07:52:05.868Z,1022.30
2022-10-11T07:53:05.814Z,1022.29
2022-10-11T07:54:07.436Z,1022.32
2022-10-11T07:55:05.746Z,1022.32
2022-10-11T07:56:05.969Z,1022.36
2022-10-11T07:57:05.682Z,1022.33
2022-10-11T07:58:05.658Z,1022.35
2022-10-11T07:59:05.615Z,1022.35
2022-10-11T08:00:05.587Z,1022.35
2022-10-11T08:01:05.661Z,1022.39
2022-10-11T08:02:05.529Z,1022.40
2022-10-11T08:03:05.486Z,1022.35
2022-10-11T08:04:05.449Z,1022.36
2022-10-11T08:05:05.418Z,1022.38
2022-10-11T08:06:05.713Z,1022.38
2022-10-11T08:07:05.407Z,1022.38
2022-10-11T08:08:05.311Z,1022.33
2022-10-11T08:09:05.280Z,1022.39
2022-10-11T08:10:05.245Z,1022.41
2022-10-11T08:11:05.225Z,1022.41
2022-10-11T08:12:05.180Z,1022.41
2022-10-11T08:13:05.220Z,1022.40
2022-10-11T08:14:05.117Z,1022.44
2022-10-11T08:15:05.124Z,1022.42
2022-10-11T08:16:05.521Z,1022.40
2022-10-11T08:17:05.017Z,1022.43
2022-10-11T08:18:04.994Z,1022.37
2022-10-11T08:19:05.009Z,1022.42
2022-10-11T08:20:04.910Z,1022.38
2022-10-11T08:21:04.905Z,1022.39
2022-10-11T08:22:04.847Z,1022.40
2022-10-11T08:23:04.809Z,1022.39
2022-10-11T08:24:04.780Z,1022.39
2022-10-11T08:25:04.846Z,1022.43
2022-10-11T08:26:05.081Z,1022.46
2022-10-11T08:27:04.678Z,1022.42
2022-10-11T08:28:04.646Z,1022.43
2022-10-11T08:29:04.698Z,1022.44
2022-10-11T08:30:04.587Z,1022.48
2022-10-11T08:31:04.540Z,1022.49
2022-10-11T08:32:04.576Z,1022.48
2022-10-11T08:33:08.459Z,1022.50
2022-10-11T08:34:04.462Z,1022.51
2022-10-11T08:35:04.414Z,1022.51
2022-10-11T08:36:04.834Z,1022.51
2022-10-11T08:37:04.348Z,1022.56
2022-10-11T08:38:04.361Z,1022.52
2022-10-11T08:39:04.289Z,1022.55
2022-10-11T08:40:04.254Z,1022.61
2022-10-11T08:41:04.281Z,1022.59
2022-10-11T08:42:04.187Z,1022.59
2022-10-11T08:43:04.151Z,1022.60
2022-10-11T08:44:04.116Z,1022.58
2022-10-11T08:45:10.936Z,1022.61
2022-10-11T08:46:04.463Z,1022.61
2022-10-11T08:47:04.098Z,1022.67
2022-10-11T08:48:03.979Z,1022.63
2022-10-11T08:49:03.951Z,1022.65
2022-10-11T08:50:03.912Z,1022.67
2022-10-11T08:51:03.879Z,1022.66
2022-10-11T08:52:03.849Z,1022.66
2022-10-11T08:53:03.948Z,1022.66
2022-10-11T08:54:07.593Z,1022.66
2022-10-11T08:55:03.755Z,1022.64
2022-10-11T08:56:04.222Z,1022.70
2022-10-11T08:57:03.685Z,1022.71
2022-10-11T08:58:03.649Z,1022.71
2022-10-11T08:59:03.666Z,1022.69
2022-10-11T09:00:03.612Z,1022.67
2022-10-11T09:01:03.597Z,1022.72
2022-10-11T09:02:03.518Z,1022.72
2022-10-11T09:03:08.412Z,1022.70
2022-10-11T09:04:03.497Z,1022.74
2022-10-11T09:05:03.420Z,1022.71
2022-10-11T09:06:03.809Z,1022.73
2022-10-11T09:07:05.041Z,1022.69
2022-10-11T09:08:03.337Z,1022.76
2022-10-11T09:09:03.287Z,1022.78
2022-10-11T09:10:03.251Z,1022.77
2022-10-11T09:11:03.223Z,1022.73
2022-10-11T09:12:03.235Z,1022.71
2022-10-11T09:13:03.152Z,1022.75
2022-10-11T09:14:03.125Z,1022.77
2022-10-11T09:15:03.085Z,1022.76
2022-10-11T09:16:03.426Z,1022.76
2022-10-11T09:17:03.072Z,1022.77
2022-10-11T09:18:02.984Z,1022.79
2022-10-11T09:19:03.847Z,1022.78
2022-10-11T09:20:02.934Z,1022.78
2022-10-11T09:21:02.892Z,1022.79
2022-10-11T09:22:02.941Z,1022.80
2022-10-11T09:23:02.829Z,1022.80
2022-10-11T09:24:02.798Z,1022.79
2022-10-11T09:25:02.762Z,1022.80
2022-10-11T09:26:03.047Z,1022.79
2022-10-11T09:27:02.688Z,1022.80
2022-10-11T09:28:03.786Z,1022.75
2022-10-11T09:29:02.725Z,1022.79
2022-10-11T09:30:02.599Z,1022.82
2022-10-11T09:31:02.566Z,1022.80
2022-10-11T09:32:02.572Z,1022.78
2022-10-11T09:33:02.696Z,1022.83
2022-10-11T09:34:02.478Z,1022.85
2022-10-11T09:35:02.478Z,1022.83
2022-10-11T09:36:02.711Z,1022.84
2022-10-11T09:37:02.513Z,1022.85
2022-10-11T09:38:02.400Z,1022.83
2022-10-11T09:39:06.445Z,1022.84
2022-10-11T09:40:02.359Z,1022.85
2022-10-11T09:41:02.333Z,1022.81
2022-10-11T09:42:02.333Z,1022.82
2022-10-11T09:43:02.382Z,1022.81
2022-10-11T09:44:02.235Z,1022.84
2022-10-11T09:45:02.223Z,1022.82
2022-10-11T09:46:02.357Z,1022.80
2022-10-11T09:47:02.128Z,1022.80
2022-10-11T09:48:02.216Z,1022.82
2022-10-11T09:49:02.080Z,1022.83
2022-10-11T09:50:02.033Z,1022.83
2022-10-11T09:51:01.958Z,1022.80
2022-10-11T09:52:01.982Z,1022.83
2022-10-11T09:53:01.976Z,1022.84
2022-10-11T09:54:01.993Z,1022.85
2022-10-11T09:55:01.880Z,1022.87
2022-10-11T09:56:02.103Z,1022.86
2022-10-11T09:57:01.807Z,1022.81
2022-10-11T09:58:01.773Z,1022.83
2022-10-11T09:59:01.831Z,1022.82
2022-10-11T10:00:01.645Z,1022.84
2022-10-11T10:01:07.400Z,1022.86
2022-10-11T10:02:01.781Z,1022.82
2022-10-11T10:03:01.620Z,1022.81
2022-10-11T10:04:01.680Z,1022.80
2022-10-11T10:05:01.571Z,1022.80
2022-10-11T10:06:01.601Z,1022.84
2022-10-11T10:07:01.477Z,1022.82
2022-10-11T10:08:04.488Z,1022.85
2022-10-11T10:09:01.516Z,1022.86
2022-10-11T10:10:01.297Z,1022.88
2022-10-11T10:11:01.352Z,1022.89
2022-10-11T10:12:01.319Z,1022.88
2022-10-11T10:13:01.290Z,1022.88
2022-10-11T10:14:01.356Z,1022.84
2022-10-11T10:15:01.148Z,1022.87
2022-10-11T10:16:01.212Z,1022.89
2022-10-11T10:17:01.166Z,1022.90
2022-10-11T10:18:01.134Z,1022.94
2022-10-11T10:19:01.212Z,1022.89
2022-10-11T10:20:01.068Z,1022.94
2022-10-11T10:21:01.043Z,1022.92
2022-10-11T10:22:01.017Z,1022.95
2022-10-11T10:23:00.981Z,1022.95
2022-10-11T10:24:01.052Z,1022.94
2022-10-11T10:25:00.938Z,1022.95
2022-10-11T10:26:00.791Z,1022.93
2022-10-11T10:27:00.851Z,1022.96
2022-10-11T10:28:00.829Z,1022.92
2022-10-11T10:29:00.983Z,1022.92
2022-10-11T10:30:00.756Z,1022.96
2022-10-11T10:31:00.719Z,1022.91
2022-10-11T10:32:15.947Z,1022.97
2022-10-11T10:33:00.699Z,1022.95
2022-10-11T10:34:00.622Z,1022.96
2022-10-11T10:35:00.715Z,1022.97
2022-10-11T10:36:00.559Z,1023.02
2022-10-11T10:37:00.565Z,1022.99
2022-10-11T10:38:00.499Z,1022.97
2022-10-11T10:39:00.463Z,1022.97
2022-10-11T10:40:00.544Z,1023.03
2022-10-11T10:41:00.406Z,1023.03
2022-10-11T10:42:00.285Z,1023.06
2022-10-11T10:43:00.246Z,1023.02
2022-10-11T10:44:00.214Z,1023.09
2022-10-11T10:45:00.262Z,1023.06
2022-10-11T10:46:00.149Z,1023.07
2022-10-11T10:47:00.118Z,1023.06
2022-10-11T10:48:00.142Z,1023.06
2022-10-11T10:50:00.025Z,1023.01
2022-10-11T10:51:00.051Z,1023.05
2022-10-11T10:51:59.962Z,1023.04
2022-10-11T10:52:59.932Z,1022.99
2022-10-11T10:53:59.903Z,1023.06
2022-10-11T10:54:59.879Z,1023.02
2022-10-11T10:55:59.837Z,1023.05
2022-10-11T10:56:59.866Z,1023.02
2022-10-11T10:57:59.781Z,1023.04
2022-10-11T10:58:59.829Z,1023.00
2022-10-11T10:59:59.719Z,1023.02
2022-10-11T11:00:59.681Z,1022.98
2022-10-11T11:02:11.134Z,1022.99
2022-10-11T11:02:59.783Z,1023.04
2022-10-11T11:03:59.594Z,1023.00
2022-10-11T11:05:59.587Z,1023.02
2022-10-11T11:06:59.495Z,1023.01
2022-10-11T11:07:59.478Z,1023.01
2022-10-11T11:09:00.246Z,1022.98
2022-10-11T11:09:59.404Z,1022.99
2022-10-11T11:10:59.452Z,1022.97
2022-10-11T11:11:59.350Z,1022.99
2022-10-11T11:12:59.325Z,1022.95
2022-10-11T11:13:59.300Z,1022.99
2022-10-11T11:14:59.259Z,1023.01
2022-10-11T11:15:59.233Z,1022.95
2022-10-11T11:16:59.249Z,1022.97
2022-10-11T11:17:59.191Z,1022.99
2022-10-11T11:18:59.146Z,1022.97
2022-10-11T11:20:06.888Z,1022.96
2022-10-11T11:20:59.086Z,1023.00
2022-10-11T11:21:59.098Z,1022.98
2022-10-11T11:22:59.026Z,1022.98
2022-10-11T11:23:58.983Z,1023.00
2022-10-11T11:24:58.975Z,1022.96
2022-10-11T11:25:58.928Z,1022.97
2022-10-11T11:26:58.964Z,1022.94
2022-10-11T11:27:58.932Z,1022.95
2022-10-11T11:28:58.838Z,1022.97
2022-10-11T11:29:58.821Z,1022.98
2022-10-11T11:30:58.778Z,1022.97
2022-10-11T11:31:58.816Z,1022.95
2022-10-11T11:32:58.716Z,1022.96
2022-10-11T11:33:58.692Z,1022.94
2022-10-11T11:34:58.660Z,1022.92
2022-10-11T11:35:58.626Z,1022.89
2022-10-11T11:36:58.608Z,1022.94
2022-10-11T11:38:03.850Z,1022.95
2022-10-11T11:38:58.536Z,1022.97
2022-10-11T11:39:58.552Z,1022.92
2022-10-11T11:40:58.474Z,1022.92
2022-10-11T11:41:58.561Z,1022.91
2022-10-11T11:42:58.712Z,1022.95
2022-10-11T11:43:58.385Z,1022.89
2022-10-11T11:44:58.358Z,1022.87
2022-10-11T11:45:58.333Z,1022.94
2022-10-11T11:46:58.296Z,1022.91
2022-10-11T11:47:58.354Z,1022.95
2022-10-11T11:48:58.236Z,1022.88
2022-10-11T11:49:58.206Z,1022.90
2022-10-11T11:50:58.179Z,1022.83
2022-10-11T11:51:58.150Z,1022.91
2022-10-11T11:52:58.125Z,1022.84
2022-10-11T11:53:58.139Z,1022.88
2022-10-11T11:55:01.455Z,1022.93
2022-10-11T11:55:58.035Z,1022.86
2022-10-11T11:56:57.998Z,1022.89
2022-10-11T11:57:57.987Z,1022.84
2022-10-11T11:58:58.032Z,1022.81
2022-10-11T11:59:57.915Z,1022.80
2022-10-11T12:00:57.887Z,1022.87
2022-10-11T12:01:57.889Z,1022.87
2022-10-11T12:02:57.828Z,1022.86
2022-10-11T12:03:57.849Z,1022.86
2022-10-11T12:04:57.778Z,1022.88
2022-10-11T12:05:57.743Z,1022.84
2022-10-11T12:07:14.984Z,1022.85